Time;durP1;ratioP1;P1;durP2;ratioP2;P2;SDS_P1;SDS_P2;PMS_P1;PMS_P2;Temp;Humidity;BMP_temperature;BMP_pressure;BME280_temperature;BME280_humidity;BME280_pressure;Samples;Min_cycle;Max_cycle;Signal;HPM_P1;HPM_P2
2022/09/16 00:12:05;;;;;;;;;;;;;;;18.03;81.93;98956.69;5699854;22;1681;-61
2022/09/16 00:14:32;;;;;;;;;;;;;;;17.97;82.37;98958.59;5033181;28;766;-61
2022/09/16 00:16:58;;;;;;;;;;;;;;;17.98;82.36;98968.50;5033491;28;787;-61
2022/09/16 00:19:25;;;;;;;;;;;;;;;17.98;82.37;98970.53;5032506;28;826;-62
2022/09/16 00:21:51;;;;;;;;;;;;;;;17.95;82.48;98972.25;5032600;28;857;-63
2022/09/16 00:24:18;;;;;;;;;;;;;;;17.94;82.73;98965.13;5032531;28;858;-61
2022/09/16 00:26:44;;;;;;;;;;;;;;;17.92;82.79;98964.81;5032394;28;802;-62
2022/09/16 00:29:11;;;;;;;;;;;;;;;17.91;82.81;98963.28;5032350;28;888;-61
2022/09/16 00:31:37;;;;;;;;;;;;;;;17.86;83.12;98961.09;5032291;28;1917;-62
2022/09/16 00:34:04;;;;;;;;;;;;;;;17.84;83.27;98972.78;5032196;28;909;-63
2022/09/16 00:36:30;;;;;;;;;;;;;;;17.81;83.38;98967.31;5032216;28;803;-63
2022/09/16 00:38:57;;;;;;;;;;;;;;;17.78;83.35;98966.25;5030913;28;886;-61
2022/09/16 00:41:26;;;;;;;;;;;;;;;17.75;83.41;98975.56;5032012;28;853;-63
2022/09/16 00:43:57;;;;;;;;;;;;;;;17.71;83.58;98974.97;5032417;28;881;-62
2022/09/16 00:46:33;;;;;;;;;;;;;;;17.63;83.84;98968.19;5032335;28;814;-61
2022/09/16 00:49:06;;;;;;;;;;;;;;;17.51;84.24;98973.47;5032068;28;831;-62
2022/09/16 00:51:34;;;;;;;;;;;;;;;17.45;84.82;98977.38;5031894;28;2017;-63
2022/09/16 00:54:03;;;;;;;;;;;;;;;17.39;84.99;98977.25;5032150;28;882;-61
2022/09/16 00:56:34;;;;;;;;;;;;;;;17.37;85.23;98984.53;5031821;28;861;-62
2022/09/16 00:59:23;;;;;;;;;;;;;;;17.36;85.09;98980.97;5032102;28;904;-61
2022/09/16 01:01:51;;;;;;;;;;;;;;;17.26;85.36;98985.00;5031868;28;850;-61
2022/09/16 01:04:23;;;;;;;;;;;;;;;17.21;85.96;98977.28;5031796;28;818;-61
2022/09/16 01:06:50;;;;;;;;;;;;;;;17.22;86.09;98976.81;5031906;28;822;-61
2022/09/16 01:09:18;;;;;;;;;;;;;;;17.27;86.48;98969.81;5031871;28;823;-61
2022/09/16 01:11:47;;;;;;;;;;;;;;;17.27;86.82;98967.81;5031787;28;1952;-62
2022/09/16 01:17:19;;;;;;;;;;;;;;;17.60;86.25;98966.31;4992453;28;625;-61
2022/09/16 01:19:45;;;;;;;;;;;;;;;17.75;85.42;98965.19;4992254;28;850;-61
2022/09/16 01:22:20;;;;;;;;;;;;;;;17.74;85.01;98974.78;4992325;28;791;-62
2022/09/16 01:24:54;;;;;;;;;;;;;;;17.68;84.88;98982.28;5007280;28;1378;-62
2022/09/16 01:27:32;;;;;;;;;;;;;;;17.59;84.77;98968.34;5007496;28;901;-61
2022/09/16 01:30:03;;;;;;;;;;;;;;;17.49;85.11;98969.59;4992105;28;1973;-61
2022/09/16 01:32:57;;;;;;;;;;;;;;;17.42;85.21;98964.38;4992401;28;807;-61
2022/09/16 01:35:26;;;;;;;;;;;;;;;17.43;85.12;98966.69;4970004;28;1268;-61
2022/09/16 01:37:53;;;;;;;;;;;;;;;17.47;84.97;98972.88;4992216;28;835;-61
2022/09/16 01:40:28;;;;;;;;;;;;;;;17.52;84.18;98972.25;4992053;28;854;-61
2022/09/16 01:43:02;;;;;;;;;;;;;;;17.44;84.20;98970.25;4992109;28;807;-61
2022/09/16 01:45:35;;;;;;;;;;;;;;;17.39;84.50;98976.47;4992010;28;815;-61
2022/09/16 01:48:04;;;;;;;;;;;;;;;17.34;84.75;98961.88;4990796;28;1358;-61
2022/09/16 01:50:31;;;;;;;;;;;;;;;17.31;84.97;98970.44;4992175;28;1961;-61
2022/09/16 01:53:07;;;;;;;;;;;;;;;17.27;84.97;98973.38;4992055;28;811;-61
2022/09/16 01:55:56;;;;;;;;;;;;;;;17.21;84.94;98975.25;5007016;28;1208;-62
2022/09/16 01:58:27;;;;;;;;;;;;;;;17.23;85.22;98974.78;4986424;28;1165;-61
2022/09/16 02:00:58;;;;;;;;;;;;;;;17.34;84.65;98977.88;4991903;28;811;-62
2022/09/16 02:03:27;;;;;;;;;;;;;;;17.36;83.94;98964.22;4992305;28;858;-61
2022/09/16 02:06:03;;;;;;;;;;;;;;;17.47;83.24;98975.66;4991883;28;802;-61
2022/09/16 02:08:49;;;;;;;;;;;;;;;17.49;82.97;98989.94;5006913;28;803;-62
2022/09/16 02:11:17;;;;;;;;;;;;;;;17.52;82.68;98986.22;4991657;28;1953;-61
2022/09/16 02:13:48;;;;;;;;;;;;;;;17.52;82.22;98986.22;5023092;28;1327;-61
2022/09/16 02:16:18;;;;;;;;;;;;;;;17.48;82.03;98985.59;5031087;28;841;-61
2022/09/16 02:18:47;;;;;;;;;;;;;;;17.43;81.84;98982.66;5013388;28;1334;-61
2022/09/16 02:21:15;;;;;;;;;;;;;;;17.42;81.52;98983.91;5031291;28;758;-62
2022/09/16 02:23:45;;;;;;;;;;;;;;;17.41;81.43;98988.72;5031340;28;937;-61
2022/09/16 02:26:15;;;;;;;;;;;;;;;17.42;81.47;98989.50;5031299;28;854;-61
2022/09/16 02:28:43;;;;;;;;;;;;;;;17.34;81.53;98995.41;5030972;28;807;-61
2022/09/16 02:31:13;;;;;;;;;;;;;;;17.35;81.11;98987.81;5033884;28;1942;-61
2022/09/16 02:33:52;;;;;;;;;;;;;;;17.33;80.88;98991.06;5034478;28;858;-61
2022/09/16 02:36:21;;;;;;;;;;;;;;;17.27;80.67;98983.78;5016852;28;1443;-61
2022/09/16 02:38:52;;;;;;;;;;;;;;;17.22;80.56;98984.41;5034704;28;865;-61
2022/09/16 02:41:19;;;;;;;;;;;;;;;17.15;80.72;98985.50;5016620;28;1284;-61
2022/09/16 02:43:45;;;;;;;;;;;;;;;17.12;80.56;98992.81;5034378;28;909;-61
2022/09/16 02:46:30;;;;;;;;;;;;;;;17.07;80.34;98981.47;5034335;28;872;-61
2022/09/16 02:49:02;;;;;;;;;;;;;;;17.08;80.75;98985.81;5034374;28;807;-61
2022/09/16 02:51:29;;;;;;;;;;;;;;;17.11;80.42;98993.25;5034119;28;1890;-61
2022/09/16 02:54:05;;;;;;;;;;;;;;;17.04;80.72;98988.78;5016491;28;867;-61
2022/09/16 02:56:35;;;;;;;;;;;;;;;16.88;80.94;98980.72;5034176;28;834;-61
2022/09/16 02:59:04;;;;;;;;;;;;;;;16.83;81.59;98978.56;5034177;28;838;-62
2022/09/16 03:01:32;;;;;;;;;;;;;;;16.89;82.19;98979.47;5034262;28;853;-61
2022/09/16 03:03:59;;;;;;;;;;;;;;;17.07;81.84;98982.28;5034112;28;827;-61
2022/09/16 03:06:27;;;;;;;;;;;;;;;17.07;81.68;98985.06;5033980;28;823;-61
2022/09/16 03:08:57;;;;;;;;;;;;;;;17.06;81.97;98991.09;5033793;28;807;-62
2022/09/16 03:11:39;;;;;;;;;;;;;;;17.07;81.98;98995.44;5034004;28;1961;-61
2022/09/16 03:14:05;;;;;;;;;;;;;;;17.09;81.75;98990.16;5033840;28;1220;-61
2022/09/16 03:16:38;;;;;;;;;;;;;;;17.14;81.66;98990.31;5033834;28;819;-61
2022/09/16 03:19:14;;;;;;;;;;;;;;;17.19;81.60;98988.91;5033686;28;834;-61
2022/09/16 03:21:54;;;;;;;;;;;;;;;17.44;80.86;98984.22;5033665;28;803;-61
2022/09/16 03:24:27;;;;;;;;;;;;;;;17.58;79.80;98989.16;5033633;28;815;-61
2022/09/16 03:27:04;;;;;;;;;;;;;;;17.59;79.15;98990.69;5033809;28;869;-61
2022/09/16 03:29:37;;;;;;;;;;;;;;;17.38;78.84;98958.94;5033650;28;854;-61
2022/09/16 03:32:16;;;;;;;;;;;;;;;17.57;78.68;99000.78;5015605;28;1921;-62
2022/09/16 03:34:48;;;;;;;;;;;;;;;17.59;78.40;98989.91;5032094;28;1248;-61
2022/09/16 03:37:18;;;;;;;;;;;;;;;17.61;78.26;98996.59;5033428;28;854;-61
2022/09/16 03:39:51;;;;;;;;;;;;;;;17.62;78.05;98995.31;5033191;28;823;-61
2022/09/16 03:42:19;;;;;;;;;;;;;;;17.55;78.43;98996.44;5032930;28;814;-61
2022/09/16 03:44:45;;;;;;;;;;;;;;;17.52;78.53;98989.00;5033273;28;853;-61
2022/09/16 03:47:12;;;;;;;;;;;;;;;17.54;78.31;98997.69;5033131;28;837;-61
2022/09/16 03:49:38;;;;;;;;;;;;;;;17.55;78.38;98987.28;5033176;28;802;-61
2022/09/16 03:52:05;;;;;;;;;;;;;;;17.59;78.50;98987.91;5032980;28;1961;-61
2022/09/16 03:54:33;;;;;;;;;;;;;;;17.60;78.36;98988.66;5015258;28;1209;-61
2022/09/16 03:57:01;;;;;;;;;;;;;;;17.59;78.45;98981.53;5031687;28;1176;-61
2022/09/16 03:59:28;;;;;;;;;;;;;;;17.64;78.41;98983.69;5033012;28;842;-61
2022/09/16 04:01:55;;;;;;;;;;;;;;;17.70;78.00;98992.97;5032910;28;865;-61
2022/09/16 04:04:22;;;;;;;;;;;;;;;17.79;77.79;98989.38;5032939;28;877;-61
2022/09/16 04:06:49;;;;;;;;;;;;;;;17.82;77.60;98996.84;5031534;28;1371;-61
2022/09/16 04:09:16;;;;;;;;;;;;;;;17.91;77.09;98994.78;5032685;28;861;-61
2022/09/16 04:11:52;;;;;;;;;;;;;;;17.99;76.51;98997.22;5032892;28;1957;-61
2022/09/16 04:14:19;;;;;;;;;;;;;;;18.04;76.54;99002.19;4993894;28;843;-62
2022/09/16 04:16:47;;;;;;;;;;;;;;;18.04;76.42;99007.78;4993545;28;810;-62
2022/09/16 04:19:14;;;;;;;;;;;;;;;18.02;76.25;99016.66;4993334;28;888;-62
2022/09/16 04:21:40;;;;;;;;;;;;;;;18.00;76.49;99007.19;4993241;28;881;-61
2022/09/16 04:24:08;;;;;;;;;;;;;;;17.96;76.41;99004.56;4993187;28;854;-61
2022/09/16 04:26:34;;;;;;;;;;;;;;;17.92;76.56;98992.75;4993383;28;779;-61
2022/09/16 04:29:01;;;;;;;;;;;;;;;17.90;76.26;98995.25;4993182;28;839;-61
2022/09/16 04:31:28;;;;;;;;;;;;;;;17.91;76.31;98994.03;4991808;28;1986;-62
2022/09/16 04:46:07;;;;;;;;;;;;;;;18.20;75.86;98985.03;4993130;28;645;-61
2022/09/16 04:48:34;;;;;;;;;;;;;;;18.25;75.73;98998.34;4992884;28;835;-61
2022/09/16 04:51:04;;;;;;;;;;;;;;;18.29;75.36;98998.97;4992611;28;1894;-61
2022/09/16 04:53:31;;;;;;;;;;;;;;;18.33;75.17;98999.56;4992167;28;862;-61
2022/09/16 04:56:07;;;;;;;;;;;;;;;18.38;74.60;98997.34;4992769;28;890;-63
2022/09/16 04:58:34;;;;;;;;;;;;;;;18.44;74.28;98989.88;4992738;28;858;-61
2022/09/16 05:01:11;;;;;;;;;;;;;;;18.49;74.04;98980.81;4992512;28;858;-61
2022/09/16 05:03:37;;;;;;;;;;;;;;;18.55;73.72;98981.69;4993172;28;822;-61
2022/09/16 05:06:04;;;;;;;;;;;;;;;18.58;73.47;98977.94;4992427;28;838;-61
2022/09/16 05:08:34;;;;;;;;;;;;;;;18.61;73.08;98984.63;4992672;28;890;-61
2022/09/16 05:11:10;;;;;;;;;;;;;;;18.63;73.24;98980.09;4992626;28;1882;-62
2022/09/16 05:13:39;;;;;;;;;;;;;;;18.68;73.05;98964.66;5020687;28;1277;-62
2022/09/16 05:16:09;;;;;;;;;;;;;;;18.79;72.93;98969.72;5031697;28;874;-61
2022/09/16 05:18:37;;;;;;;;;;;;;;;18.89;72.45;98965.59;5013834;28;873;-61
2022/09/16 05:21:04;;;;;;;;;;;;;;;18.96;72.07;98968.03;5013930;28;1316;-61
2022/09/16 05:23:30;;;;;;;;;;;;;;;19.06;71.81;98980.69;5031576;28;886;-61
2022/09/16 05:26:17;;;;;;;;;;;;;;;19.16;71.38;98975.75;5031584;28;834;-61
2022/09/16 05:28:44;;;;;;;;;;;;;;;19.25;70.90;98981.28;5031362;28;1156;-61
2022/09/16 05:31:12;;;;;;;;;;;;;;;19.27;70.84;98973.19;5031412;28;1914;-61
2022/09/16 05:33:39;;;;;;;;;;;;;;;19.26;70.88;98979.25;5031462;28;888;-61
2022/09/16 05:36:07;;;;;;;;;;;;;;;19.27;70.93;98986.41;5013768;28;835;-60
2022/09/16 05:38:36;;;;;;;;;;;;;;;19.32;70.63;98986.50;5031485;28;807;-60
